createdAt,value
2017-10-06T00:00:53.574Z,93.22
2017-10-06T00:01:45.952Z,92.65
2017-10-06T00:03:39.353Z,91.03
2017-10-06T00:04:39.298Z,91.03
2017-10-06T00:06:32.752Z,91.31
2017-10-06T00:07:32.738Z,90.56
2017-10-06T00:09:26.084Z,91.03
2017-10-06T00:10:26.160Z,90.75
2017-10-06T00:12:19.529Z,90.65
2017-10-06T00:13:19.584Z,90.65
2017-10-06T00:15:14.053Z,91.03
2017-10-06T00:16:13.983Z,91.51
2017-10-06T00:18:07.337Z,90.84
2017-10-06T00:19:07.531Z,90.94
2017-10-06T00:21:00.840Z,90.84
2017-10-06T00:22:00.848Z,90.56
2017-10-06T00:23:54.164Z,91.13
2017-10-06T00:24:54.387Z,90.65
2017-10-06T00:26:47.597Z,90.84
2017-10-06T00:27:47.645Z,90.84
2017-10-06T00:29:49.595Z,91.03
2017-10-06T00:30:40.986Z,90.84
2017-10-06T00:32:43.089Z,90.65
2017-10-06T00:33:35.411Z,89.98
2017-10-06T00:35:37.393Z,91.31
2017-10-06T00:36:29.814Z,92.94
2017-10-06T00:38:31.861Z,93.22
2017-10-06T00:39:24.278Z,93.41
2017-10-06T00:41:17.586Z,94.74
2017-10-06T00:42:17.638Z,93.51
2017-10-06T00:44:11.033Z,94.93
2017-10-06T00:45:11.023Z,94.27
2017-10-06T00:47:04.432Z,94.65
2017-10-06T00:48:04.463Z,94.46
2017-10-06T00:49:58.784Z,94.27
2017-10-06T00:50:58.835Z,94.74
2017-10-06T00:52:53.190Z,92.55
2017-10-06T00:53:53.183Z,93.13
2017-10-06T00:55:47.598Z,93.89
2017-10-06T00:56:47.648Z,94.17
2017-10-06T00:58:41.090Z,93.51
2017-10-06T00:59:41.028Z,93.03
2017-10-06T01:01:34.463Z,92.84
2017-10-06T01:02:34.530Z,93.89
2017-10-06T01:04:28.866Z,93.51
2017-10-06T01:05:28.880Z,92.74
2017-10-06T01:07:30.833Z,94.65
2017-10-06T01:08:22.346Z,94.46
2017-10-06T01:10:15.717Z,94.65
2017-10-06T01:11:15.628Z,95.03
2017-10-06T01:13:09.031Z,93.60
2017-10-06T01:14:09.079Z,93.65
2017-10-06T01:16:02.424Z,94.65
2017-10-06T01:17:02.430Z,94.70
2017-10-06T01:18:56.846Z,95.56
2017-10-06T01:19:56.855Z,95.56
2017-10-06T01:21:51.251Z,94.89
2017-10-06T01:22:51.359Z,94.79
2017-10-06T01:24:45.652Z,94.32
2017-10-06T01:25:45.640Z,94.51
2017-10-06T01:27:39.043Z,94.42
2017-10-06T01:28:39.045Z,94.70
2017-10-06T01:30:32.462Z,93.94
2017-10-06T01:31:32.415Z,93.65
2017-10-06T01:33:25.817Z,93.37
2017-10-06T01:34:25.857Z,93.74
2017-10-06T01:36:19.269Z,94.03
2017-10-06T01:37:19.285Z,93.46
2017-10-06T01:39:12.601Z,93.94
2017-10-06T01:40:12.683Z,94.74
2017-10-06T01:42:06.049Z,94.56
2017-10-06T01:43:06.049Z,94.84
2017-10-06T01:45:00.439Z,94.37
2017-10-06T01:46:00.441Z,93.60
2017-10-06T01:47:53.852Z,94.70
2017-10-06T01:48:53.873Z,94.37
2017-10-06T01:50:47.195Z,94.56
2017-10-06T01:51:47.262Z,94.93
2017-10-06T01:53:40.614Z,94.84
2017-10-06T01:54:40.778Z,94.27
2017-10-06T01:56:35.048Z,94.37
2017-10-06T01:57:35.107Z,94.37
2017-10-06T01:59:29.524Z,93.70
2017-10-06T02:00:29.462Z,92.46
2017-10-06T02:02:22.828Z,94.56
2017-10-06T02:03:22.861Z,94.84
2017-10-06T02:05:17.291Z,93.32
2017-10-06T02:06:17.330Z,93.32
2017-10-06T02:08:10.742Z,93.13
2017-10-06T02:09:10.706Z,92.94
2017-10-06T02:11:04.086Z,92.18
2017-10-06T02:12:04.206Z,92.27
2017-10-06T02:13:58.584Z,93.41
2017-10-06T02:14:58.556Z,92.94
2017-10-06T02:16:51.856Z,92.46
2017-10-06T02:17:51.909Z,93.03
2017-10-06T02:19:46.309Z,92.65
2017-10-06T02:20:46.285Z,92.08
2017-10-06T02:22:39.762Z,92.36
2017-10-06T02:23:39.719Z,92.03
2017-10-06T02:25:33.170Z,91.89
2017-10-06T02:26:33.117Z,91.65
2017-10-06T02:28:26.532Z,92.70
2017-10-06T02:29:26.506Z,92.13
2017-10-06T02:31:20.961Z,92.51
2017-10-06T02:32:20.920Z,92.79
2017-10-06T02:34:15.458Z,92.89
2017-10-06T02:35:15.294Z,92.99
2017-10-06T02:37:08.720Z,92.89
2017-10-06T02:38:08.723Z,93.27
2017-10-06T02:40:11.743Z,92.79
2017-10-06T02:41:03.158Z,93.18
2017-10-06T02:42:56.710Z,93.74
2017-10-06T02:43:56.666Z,94.51
2017-10-06T02:45:49.904Z,93.65
2017-10-06T02:46:49.906Z,93.46
2017-10-06T02:48:43.405Z,92.99
2017-10-06T02:49:43.305Z,93.37
2017-10-06T02:51:36.778Z,93.27
2017-10-06T02:52:36.729Z,93.84
2017-10-06T02:54:30.128Z,94.70
2017-10-06T02:55:30.173Z,94.89
2017-10-06T02:57:23.552Z,94.42
2017-10-06T02:58:23.553Z,93.27
2017-10-06T03:00:17.904Z,94.89
2017-10-06T03:01:17.974Z,93.65
2017-10-06T03:03:11.318Z,94.70
2017-10-06T03:04:11.509Z,95.27
2017-10-06T03:06:13.315Z,94.32
2017-10-06T03:07:04.730Z,93.94
2017-10-06T03:08:58.110Z,93.27
2017-10-06T03:09:58.168Z,93.46
2017-10-06T03:12:01.160Z,92.99
2017-10-06T03:12:52.578Z,93.08
2017-10-06T03:14:45.929Z,93.27
2017-10-06T03:15:46.024Z,93.37
2017-10-06T03:17:41.433Z,93.37
2017-10-06T03:18:41.473Z,93.46
2017-10-06T03:20:43.385Z,93.65
2017-10-06T03:21:35.863Z,93.94
2017-10-06T03:23:30.214Z,92.99
2017-10-06T03:24:30.295Z,93.18
2017-10-06T03:26:25.588Z,93.65
2017-10-06T03:27:25.643Z,94.51
2017-10-06T03:29:18.964Z,93.84
2017-10-06T03:30:19.092Z,93.37
2017-10-06T03:32:12.379Z,93.94
2017-10-06T03:33:12.456Z,93.18
2017-10-06T03:35:05.816Z,93.08
2017-10-06T03:36:05.879Z,93.37
2017-10-06T03:38:00.289Z,93.04
2017-10-06T03:39:00.218Z,93.04
2017-10-06T03:41:02.274Z,93.32
2017-10-06T03:41:54.601Z,93.13
2017-10-06T03:43:55.629Z,93.13
2017-10-06T03:44:48.010Z,92.46
2017-10-06T03:46:49.047Z,92.36
2017-10-06T03:47:41.399Z,93.23
2017-10-06T03:49:34.989Z,92.94
2017-10-06T03:50:34.833Z,93.27
2017-10-06T03:52:36.882Z,93.04
2017-10-06T03:53:29.464Z,93.18
2017-10-06T03:55:30.324Z,93.55
2017-10-06T03:56:22.657Z,93.23
2017-10-06T03:58:23.637Z,92.94
2017-10-06T03:59:16.003Z,92.60
2017-10-06T04:01:17.238Z,92.75
2017-10-06T04:02:09.458Z,93.37
2017-10-06T04:04:04.020Z,93.46
2017-10-06T04:05:04.036Z,93.18
2017-10-06T04:07:05.920Z,93.37
2017-10-06T04:07:58.332Z,92.99
2017-10-06T04:09:52.652Z,92.89
2017-10-06T04:10:52.809Z,92.79
2017-10-06T04:12:54.819Z,92.60
2017-10-06T04:13:47.102Z,92.99
2017-10-06T04:15:41.570Z,92.99
2017-10-06T04:16:41.503Z,92.94
2017-10-06T04:18:44.690Z,93.37
2017-10-06T04:19:36.147Z,93.74
2017-10-06T04:21:29.308Z,93.18
2017-10-06T04:22:37.030Z,93.37
2017-10-06T04:24:23.606Z,93.37
2017-10-06T04:25:31.308Z,92.99
2017-10-06T04:27:17.337Z,93.37
2017-10-06T04:28:17.096Z,93.65
2017-10-06T04:30:10.460Z,93.18
2017-10-06T04:31:10.451Z,92.99
2017-10-06T04:33:03.902Z,92.79
2017-10-06T04:34:03.910Z,92.79
2017-10-06T04:35:58.433Z,92.65
2017-10-06T04:36:58.338Z,92.18
2017-10-06T04:38:51.676Z,92.65
2017-10-06T04:39:51.719Z,92.65
2017-10-06T04:41:45.072Z,92.75
2017-10-06T04:42:45.154Z,92.46
2017-10-06T04:44:38.567Z,92.65
2017-10-06T04:45:38.467Z,92.65
2017-10-06T04:47:31.925Z,92.94
2017-10-06T04:48:31.868Z,92.65
2017-10-06T04:50:34.107Z,93.32
2017-10-06T04:51:25.392Z,92.94
2017-10-06T04:53:28.488Z,92.94
2017-10-06T04:54:19.764Z,93.13
2017-10-06T04:56:14.252Z,93.23
2017-10-06T04:57:21.944Z,93.51
2017-10-06T04:59:07.662Z,93.04
2017-10-06T05:00:07.615Z,93.13
2017-10-06T05:02:11.053Z,93.23
2017-10-06T05:03:02.093Z,92.94
2017-10-06T05:04:55.426Z,93.04
2017-10-06T05:05:55.526Z,92.94
2017-10-06T05:07:48.858Z,93.04
2017-10-06T05:08:48.768Z,93.13
2017-10-06T05:10:51.007Z,93.51
2017-10-06T05:11:43.215Z,93.51
2017-10-06T05:13:46.485Z,93.51
2017-10-06T05:14:37.570Z,94.27
2017-10-06T05:16:39.971Z,94.37
2017-10-06T05:17:31.048Z,94.27
2017-10-06T05:19:34.287Z,94.27
2017-10-06T05:20:25.513Z,93.32
2017-10-06T05:22:27.502Z,94.08
2017-10-06T05:23:20.073Z,93.37
2017-10-06T05:25:23.148Z,93.84
2017-10-06T05:26:14.340Z,93.55
2017-10-06T05:28:17.949Z,92.80
2017-10-06T05:29:08.775Z,93.37
2017-10-06T05:31:10.996Z,93.08
2017-10-06T05:32:02.154Z,93.18
2017-10-06T05:34:05.337Z,92.89
2017-10-06T05:34:56.787Z,92.61
2017-10-06T05:36:59.745Z,92.51
2017-10-06T05:37:51.066Z,92.89
2017-10-06T05:39:53.994Z,93.08
2017-10-06T05:40:44.492Z,92.51
2017-10-06T05:42:38.987Z,92.89
2017-10-06T05:43:39.067Z,92.61
2017-10-06T05:45:42.014Z,92.99
2017-10-06T05:46:42.613Z,92.80
2017-10-06T05:48:35.697Z,92.89
2017-10-06T05:49:36.634Z,92.61
2017-10-06T05:51:21.259Z,93.18
2017-10-06T05:52:30.097Z,93.27
2017-10-06T05:54:15.745Z,93.55
2017-10-06T05:55:24.441Z,93.27
2017-10-06T05:57:18.017Z,93.27
2017-10-06T05:58:17.700Z,93.84
2017-10-06T06:00:02.488Z,93.27
2017-10-06T06:01:10.906Z,93.08
2017-10-06T06:02:56.764Z,93.18
2017-10-06T06:04:05.366Z,92.89
2017-10-06T06:06:00.543Z,93.27
2017-10-06T06:06:59.695Z,93.27
2017-10-06T06:08:45.690Z,93.27
2017-10-06T06:09:54.809Z,93.18
2017-10-06T06:11:48.291Z,92.89
2017-10-06T06:12:39.607Z,92.99
2017-10-06T06:14:43.735Z,92.61
2017-10-06T06:15:42.812Z,92.61
2017-10-06T06:17:28.592Z,92.51
2017-10-06T06:18:37.338Z,92.51
2017-10-06T06:20:23.042Z,92.46
2017-10-06T06:21:30.588Z,92.08
2017-10-06T06:23:17.368Z,92.36
2017-10-06T06:24:26.030Z,91.99
2017-10-06T06:26:20.462Z,92.18
2017-10-06T06:27:20.362Z,92.08
2017-10-06T06:29:06.263Z,92.18
2017-10-06T06:30:15.715Z,91.22
2017-10-06T06:32:00.807Z,90.75
2017-10-06T06:33:09.195Z,90.84
2017-10-06T06:34:55.012Z,90.47
2017-10-06T06:36:03.715Z,90.51
2017-10-06T06:37:49.400Z,89.84
2017-10-06T06:38:57.968Z,90.99
2017-10-06T06:40:43.726Z,90.42
2017-10-06T06:41:52.365Z,90.89
2017-10-06T06:43:48.004Z,90.51
2017-10-06T06:44:37.977Z,89.18
2017-10-06T06:46:40.121Z,89.94
2017-10-06T06:47:31.507Z,88.60
2017-10-06T06:49:26.157Z,89.27
2017-10-06T06:50:35.198Z,89.47
2017-10-06T06:52:20.669Z,89.08
2017-10-06T06:53:30.155Z,88.42
2017-10-06T06:55:14.784Z,88.70
2017-10-06T06:56:14.880Z,89.27
2017-10-06T06:58:09.286Z,89.37
2017-10-06T06:59:09.091Z,89.37
2017-10-06T07:01:03.510Z,89.65
2017-10-06T07:02:03.441Z,89.75
2017-10-06T07:03:56.920Z,90.22
2017-10-06T07:04:56.863Z,89.47
2017-10-06T07:06:50.268Z,88.70
2017-10-06T07:07:50.246Z,88.99
2017-10-06T07:09:43.735Z,89.37
2017-10-06T07:10:43.587Z,89.56
2017-10-06T07:12:37.014Z,89.56
2017-10-06T07:13:37.064Z,90.61
2017-10-06T07:15:30.455Z,89.56
2017-10-06T07:16:30.463Z,88.79
2017-10-06T07:18:23.819Z,88.70
2017-10-06T07:19:23.862Z,88.60
2017-10-06T07:21:17.349Z,87.46
2017-10-06T07:22:17.335Z,87.65
2017-10-06T07:24:10.629Z,88.60
2017-10-06T07:25:10.743Z,88.60
2017-10-06T07:27:04.135Z,87.65
2017-10-06T07:28:04.160Z,87.94
2017-10-06T07:29:58.560Z,87.18
2017-10-06T07:30:58.461Z,87.46
2017-10-06T07:32:52.885Z,86.90
2017-10-06T07:33:52.902Z,86.61
2017-10-06T07:35:46.287Z,88.32
2017-10-06T07:36:46.256Z,87.56
2017-10-06T07:38:39.709Z,86.90
2017-10-06T07:39:39.727Z,86.61
2017-10-06T07:41:33.189Z,86.32
2017-10-06T07:42:33.087Z,86.99
2017-10-06T07:44:26.475Z,86.99
2017-10-06T07:45:26.529Z,85.75
2017-10-06T07:47:19.867Z,86.27
2017-10-06T07:48:19.914Z,86.36
2017-10-06T07:50:13.341Z,86.36
2017-10-06T07:51:13.359Z,85.32
2017-10-06T07:53:07.730Z,83.89
2017-10-06T07:54:07.736Z,84.65
2017-10-06T07:56:01.149Z,84.84
2017-10-06T07:57:01.170Z,84.27
2017-10-06T07:58:54.586Z,84.56
2017-10-06T07:59:54.577Z,84.84
2017-10-06T08:01:48.090Z,85.22
2017-10-06T08:02:47.965Z,84.46
2017-10-06T08:04:41.361Z,84.46
2017-10-06T08:05:41.365Z,83.70
2017-10-06T08:07:35.756Z,83.70
2017-10-06T08:08:35.777Z,83.13
2017-10-06T08:10:30.131Z,84.41
2017-10-06T08:11:30.149Z,83.36
2017-10-06T08:13:23.545Z,83.07
2017-10-06T08:14:23.569Z,82.46
2017-10-06T08:16:17.908Z,83.74
2017-10-06T08:17:17.962Z,83.03
2017-10-06T08:19:12.399Z,82.46
2017-10-06T08:20:12.375Z,82.37
2017-10-06T08:22:05.744Z,82.93
2017-10-06T08:23:05.782Z,83.03
2017-10-06T08:24:59.241Z,82.46
2017-10-06T08:25:59.165Z,82.56
2017-10-06T08:27:52.605Z,81.70
2017-10-06T08:28:52.732Z,81.23
2017-10-06T08:30:46.075Z,81.41
2017-10-06T08:31:46.128Z,81.79
2017-10-06T08:33:40.420Z,81.70
2017-10-06T08:34:40.461Z,82.56
2017-10-06T08:36:33.957Z,83.26
2017-10-06T08:37:33.834Z,83.74
2017-10-06T08:39:27.215Z,82.60
2017-10-06T08:40:27.210Z,82.41
2017-10-06T08:42:20.636Z,82.89
2017-10-06T08:43:20.647Z,83.07
2017-10-06T08:45:14.054Z,83.07
2017-10-06T08:46:14.053Z,82.69
2017-10-06T08:48:07.437Z,83.02
2017-10-06T08:49:07.426Z,82.45
2017-10-06T08:51:00.852Z,82.07
2017-10-06T08:52:00.819Z,81.12
2017-10-06T08:53:55.215Z,80.92
2017-10-06T08:54:55.246Z,81.21
2017-10-06T08:56:48.646Z,81.49
2017-10-06T08:57:48.629Z,81.30
2017-10-06T08:59:43.887Z,79.68
2017-10-06T09:00:43.956Z,80.35
2017-10-06T09:02:37.312Z,79.21
2017-10-06T09:03:37.274Z,80.16
2017-10-06T09:05:30.669Z,80.11
2017-10-06T09:06:30.770Z,79.82
2017-10-06T09:08:24.101Z,80.05
2017-10-06T09:09:24.095Z,78.62
2017-10-06T09:11:17.507Z,78.14
2017-10-06T09:12:17.557Z,76.23
2017-10-06T09:14:11.933Z,76.14
2017-10-06T09:15:11.941Z,76.71
2017-10-06T09:17:05.283Z,76.04
2017-10-06T09:18:05.319Z,75.62
2017-10-06T09:19:58.758Z,76.01
2017-10-06T09:20:58.737Z,76.67
2017-10-06T09:22:52.137Z,76.86
2017-10-06T09:23:52.150Z,75.78
2017-10-06T09:25:46.555Z,76.06
2017-10-06T09:26:46.574Z,77.72
2017-10-06T09:28:39.957Z,76.73
2017-10-06T09:29:40.018Z,78.16
2017-10-06T09:31:33.419Z,78.06
2017-10-06T09:32:33.349Z,77.40
2017-10-06T09:34:26.795Z,77.62
2017-10-06T09:35:26.777Z,77.72
2017-10-06T09:37:21.167Z,77.25
2017-10-06T09:38:21.247Z,77.34
2017-10-06T09:40:15.587Z,76.57
2017-10-06T09:41:15.581Z,77.44
2017-10-06T09:43:09.013Z,77.34
2017-10-06T09:44:09.063Z,78.30
2017-10-06T09:46:02.395Z,76.86
2017-10-06T09:47:02.449Z,77.06
2017-10-06T09:48:56.804Z,76.67
2017-10-06T09:49:56.842Z,76.20
2017-10-06T09:51:50.240Z,76.67
2017-10-06T09:52:51.555Z,76.29
2017-10-06T09:54:52.980Z,76.20
2017-10-06T09:55:53.338Z,76.01
2017-10-06T09:57:46.467Z,74.99
2017-10-06T09:58:45.743Z,74.61
2017-10-06T10:00:40.055Z,74.74
2017-10-06T10:01:32.209Z,71.63
2017-10-06T10:03:34.289Z,70.33
2017-10-06T10:04:25.585Z,70.10
2017-10-06T10:06:18.981Z,67.43
2017-10-06T10:07:19.193Z,68.67
2017-10-06T10:09:14.540Z,71.69
2017-10-06T10:10:14.379Z,72.23
2017-10-06T10:12:09.139Z,72.61
2017-10-06T10:13:08.846Z,73.18
2017-10-06T10:15:03.379Z,72.13
2017-10-06T10:16:03.258Z,70.89
2017-10-06T10:17:56.571Z,71.66
2017-10-06T10:18:56.693Z,73.37
2017-10-06T10:20:50.214Z,73.75
2017-10-06T10:21:50.006Z,73.28
2017-10-06T10:23:43.372Z,72.71
2017-10-06T10:24:43.489Z,71.84
2017-10-06T10:26:37.900Z,72.23
2017-10-06T10:27:37.849Z,72.38
2017-10-06T10:29:33.256Z,71.72
2017-10-06T10:30:33.273Z,72.38
2017-10-06T10:32:27.039Z,71.72
2017-10-06T10:33:26.863Z,71.52
2017-10-06T10:35:20.498Z,72.19
2017-10-06T10:36:20.453Z,72.42
2017-10-06T10:38:13.913Z,71.94
2017-10-06T10:39:13.836Z,71.75
2017-10-06T10:41:08.311Z,70.98
2017-10-06T10:42:08.269Z,69.46
2017-10-06T10:44:02.786Z,68.22
2017-10-06T10:45:02.807Z,68.92
2017-10-06T10:46:56.414Z,69.68
2017-10-06T10:47:56.169Z,69.49
2017-10-06T10:49:49.626Z,69.46
2017-10-06T10:50:50.078Z,68.88
2017-10-06T10:52:43.039Z,68.88
2017-10-06T10:53:42.928Z,68.95
2017-10-06T10:55:36.431Z,71.14
2017-10-06T10:56:36.392Z,70.19
2017-10-06T10:58:31.821Z,70.76
2017-10-06T10:59:31.751Z,71.91
2017-10-06T11:01:24.916Z,70.57
2017-10-06T11:02:24.956Z,71.56
2017-10-06T11:04:18.359Z,70.51
2017-10-06T11:05:18.110Z,70.19
2017-10-06T11:07:12.574Z,71.72
2017-10-06T11:08:12.501Z,71.81
2017-10-06T11:10:05.929Z,72.03
2017-10-06T11:11:05.976Z,71.46
2017-10-06T11:12:59.430Z,69.68
2017-10-06T11:13:59.332Z,69.21
2017-10-06T11:15:52.980Z,69.49
2017-10-06T11:16:52.983Z,69.31
2017-10-06T11:18:47.974Z,68.00
2017-10-06T11:19:47.260Z,68.86
2017-10-06T11:21:41.850Z,68.26
2017-10-06T11:22:41.846Z,69.72
2017-10-06T11:24:36.264Z,68.48
2017-10-06T11:25:36.583Z,67.52
2017-10-06T11:27:30.552Z,69.15
2017-10-06T11:28:30.598Z,69.02
2017-10-06T11:30:25.004Z,70.54
2017-10-06T11:31:24.850Z,70.98
2017-10-06T11:33:18.251Z,73.08
2017-10-06T11:34:18.412Z,73.56
2017-10-06T11:36:11.710Z,72.64
2017-10-06T11:37:11.688Z,71.06
2017-10-06T11:39:06.120Z,70.29
2017-10-06T11:40:06.255Z,70.73
2017-10-06T11:42:00.802Z,71.75
2017-10-06T11:43:00.654Z,71.84
2017-10-06T11:44:54.068Z,72.03
2017-10-06T11:45:53.943Z,70.51
2017-10-06T11:47:50.249Z,69.68
2017-10-06T11:48:49.327Z,69.43
2017-10-06T11:50:42.757Z,68.10
2017-10-06T11:51:43.807Z,67.58
2017-10-06T11:53:44.862Z,68.23
2017-10-06T11:54:37.673Z,66.35
2017-10-06T11:56:33.289Z,62.74
2017-10-06T11:57:41.192Z,61.25
2017-10-06T11:59:39.044Z,62.52
2017-10-06T12:00:27.882Z,64.98
2017-10-06T12:02:30.907Z,68.19
2017-10-06T12:03:22.119Z,67.94
2017-10-06T12:05:24.495Z,67.97
2017-10-06T12:06:25.401Z,67.88
2017-10-06T12:08:10.220Z,66.44
2017-10-06T12:09:18.696Z,65.55
2017-10-06T12:11:04.470Z,65.04
2017-10-06T12:12:04.523Z,65.81
2017-10-06T12:13:57.998Z,67.27
2017-10-06T12:14:58.047Z,68.41
2017-10-06T12:16:52.320Z,68.48
2017-10-06T12:17:52.333Z,69.49
2017-10-06T12:19:46.723Z,71.02
2017-10-06T12:20:46.831Z,70.98
2017-10-06T12:22:41.133Z,74.71
2017-10-06T12:23:41.150Z,77.57
2017-10-06T12:25:35.754Z,79.91
2017-10-06T12:26:36.071Z,81.73
2017-10-06T12:28:30.113Z,82.87
2017-10-06T12:29:37.666Z,83.64
2017-10-06T12:31:32.152Z,85.41
2017-10-06T12:32:23.462Z,84.64
2017-10-06T12:34:17.843Z,85.50
2017-10-06T12:35:17.790Z,87.12
2017-10-06T12:37:18.476Z,92.46
2017-10-06T12:38:11.216Z,94.08
2017-10-06T12:40:14.389Z,93.22
2017-10-06T12:41:04.676Z,93.98
2017-10-06T12:43:05.854Z,92.89
2017-10-06T12:43:58.114Z,93.84
2017-10-06T12:46:01.235Z,93.55
2017-10-06T12:46:51.505Z,93.17
2017-10-06T12:48:53.627Z,92.79
2017-10-06T12:49:44.871Z,94.27
2017-10-06T12:51:47.946Z,93.98
2017-10-06T12:52:39.250Z,94.46
2017-10-06T12:54:33.817Z,95.61
2017-10-06T12:55:33.642Z,95.89
2017-10-06T12:57:35.748Z,93.36
2017-10-06T12:58:27.006Z,92.65
2017-10-06T13:00:29.267Z,89.88
2017-10-06T13:01:20.530Z,88.97
2017-10-06T13:03:23.566Z,86.01
2017-10-06T13:04:14.860Z,86.30
2017-10-06T13:06:08.372Z,84.34
2017-10-06T13:07:16.028Z,86.54
2017-10-06T13:09:09.514Z,87.54
2017-10-06T13:10:10.276Z,88.12
2017-10-06T13:12:02.767Z,86.55
2017-10-06T13:12:55.030Z,86.26
2017-10-06T13:14:49.655Z,88.26
2017-10-06T13:15:58.216Z,90.17
2017-10-06T13:17:50.657Z,90.64
2017-10-06T13:18:42.828Z,91.03
2017-10-06T13:20:45.081Z,88.55
2017-10-06T13:21:36.324Z,89.69
2017-10-06T13:23:39.584Z,89.98
2017-10-06T13:24:30.708Z,89.98
2017-10-06T13:26:33.800Z,89.98
2017-10-06T13:27:25.186Z,90.64
2017-10-06T13:29:28.337Z,88.93
2017-10-06T13:30:28.307Z,89.98
2017-10-06T13:32:22.675Z,90.31
2017-10-06T13:33:14.042Z,89.93
2017-10-06T13:35:18.109Z,89.07
2017-10-06T13:36:09.449Z,89.36
2017-10-06T13:38:12.487Z,90.45
2017-10-06T13:39:12.449Z,91.03
2017-10-06T13:41:06.457Z,91.22
2017-10-06T13:41:57.210Z,90.64
2017-10-06T13:43:51.787Z,91.03
2017-10-06T13:45:00.452Z,91.31
2017-10-06T13:46:54.887Z,90.17
2017-10-06T13:47:54.700Z,90.70
2017-10-06T13:49:49.082Z,90.98
2017-10-06T13:50:40.480Z,92.50
2017-10-06T13:52:43.518Z,91.27
2017-10-06T13:53:34.894Z,91.03
2017-10-06T13:55:37.968Z,90.59
2017-10-06T13:56:29.320Z,91.88
2017-10-06T13:58:32.474Z,91.69
2017-10-06T13:59:23.654Z,90.97
2017-10-06T14:01:26.369Z,89.21
2017-10-06T14:02:18.068Z,89.21
2017-10-06T14:04:21.423Z,88.45
2017-10-06T14:05:12.531Z,86.63
2017-10-06T14:07:16.673Z,85.15
2017-10-06T14:08:15.757Z,87.06
2017-10-06T14:10:00.373Z,87.39
2017-10-06T14:11:00.304Z,86.82
2017-10-06T14:12:54.692Z,84.67
2017-10-06T14:13:54.813Z,86.30
2017-10-06T14:15:48.216Z,84.53
2017-10-06T14:16:48.105Z,85.77
2017-10-06T14:18:41.839Z,87.78
2017-10-06T14:19:41.534Z,89.17
2017-10-06T14:21:44.595Z,89.36
2017-10-06T14:22:36.052Z,90.03
2017-10-06T14:24:38.121Z,89.07
2017-10-06T14:25:30.279Z,91.36
2017-10-06T14:27:31.619Z,93.22
2017-10-06T14:28:23.741Z,92.98
2017-10-06T14:30:25.809Z,93.70
2017-10-06T14:31:17.136Z,94.93
2017-10-06T14:33:19.235Z,95.17
2017-10-06T14:34:10.527Z,95.84
2017-10-06T14:36:12.571Z,96.03
2017-10-06T14:37:03.962Z,96.98
2017-10-06T14:38:57.416Z,96.36
2017-10-06T14:39:57.313Z,97.79
2017-10-06T14:41:50.775Z,98.83
2017-10-06T14:42:59.565Z,98.79
2017-10-06T14:44:52.805Z,99.36
2017-10-06T14:45:45.067Z,98.17
2017-10-06T14:47:46.199Z,98.50
2017-10-06T14:48:38.530Z,98.03
2017-10-06T14:50:41.692Z,97.55
2017-10-06T14:51:32.895Z,96.89
2017-10-06T14:53:34.034Z,97.65
2017-10-06T14:54:26.328Z,97.55
2017-10-06T14:56:29.585Z,94.03
2017-10-06T14:57:20.863Z,95.17
2017-10-06T14:59:22.893Z,95.56
2017-10-06T15:00:14.200Z,95.12
2017-10-06T15:02:15.243Z,94.65
2017-10-06T15:03:07.505Z,95.12
2017-10-06T15:05:08.620Z,91.99
2017-10-06T15:06:01.303Z,93.03
2017-10-06T15:08:04.036Z,95.08
2017-10-06T15:08:55.489Z,95.12
2017-10-06T15:10:50.684Z,94.56
2017-10-06T15:11:50.851Z,93.70
2017-10-06T15:13:52.929Z,94.08
2017-10-06T15:14:52.149Z,94.56
2017-10-06T15:16:38.774Z,93.98
2017-10-06T15:17:38.773Z,93.60
2017-10-06T15:19:41.773Z,93.70
2017-10-06T15:20:40.608Z,92.55
2017-10-06T15:22:26.230Z,92.84
2017-10-06T15:23:26.372Z,93.60
2017-10-06T15:25:20.877Z,95.12
2017-10-06T15:26:31.311Z,94.56
2017-10-06T15:28:14.420Z,94.74
2017-10-06T15:31:08.970Z,94.46
2017-10-06T15:34:32.125Z,94.27
2017-10-06T15:36:05.010Z,94.27
2017-10-06T15:36:56.407Z,94.37
2017-10-06T15:38:57.486Z,94.37
2017-10-06T15:39:50.070Z,94.37
2017-10-06T15:41:53.068Z,93.70
2017-10-06T15:42:51.248Z,93.22
2017-10-06T15:44:45.723Z,92.65
2017-10-06T15:45:44.572Z,93.13
2017-10-06T15:47:40.927Z,92.84
2017-10-06T15:48:31.380Z,93.22
2017-10-06T15:50:34.419Z,91.99
2017-10-06T15:51:25.750Z,91.70
2017-10-06T15:53:20.126Z,92.36
2017-10-06T15:54:20.518Z,92.74
2017-10-06T15:56:22.415Z,93.13
2017-10-06T15:57:14.502Z,93.08
2017-10-06T15:59:07.979Z,94.60
2017-10-06T16:00:16.658Z,94.84
2017-10-06T16:02:01.845Z,95.08
2017-10-06T16:03:02.285Z,94.56
2017-10-06T16:05:04.532Z,94.37
2017-10-06T16:05:56.298Z,94.22
2017-10-06T16:07:58.167Z,93.55
2017-10-06T16:08:50.158Z,94.22
2017-10-06T16:10:44.662Z,93.46
2017-10-06T16:11:44.556Z,94.32
2017-10-06T16:13:37.966Z,94.89
2017-10-06T16:14:37.956Z,94.93
2017-10-06T16:16:31.421Z,93.46
2017-10-06T16:17:31.485Z,93.79
2017-10-06T16:19:24.878Z,94.32
2017-10-06T16:20:24.849Z,94.42
2017-10-06T16:22:18.222Z,94.32
2017-10-06T16:23:18.202Z,94.22
2017-10-06T16:25:12.184Z,94.79
2017-10-06T16:26:11.595Z,94.70
2017-10-06T16:28:05.330Z,94.74
2017-10-06T16:29:05.015Z,94.22
2017-10-06T16:30:58.512Z,94.60
2017-10-06T16:31:58.432Z,95.56
2017-10-06T16:33:54.175Z,94.32
2017-10-06T16:34:54.183Z,94.22
2017-10-06T16:36:48.518Z,95.08
2017-10-06T16:37:48.601Z,94.51
2017-10-06T16:39:41.932Z,93.37
2017-10-06T16:40:41.960Z,94.22
2017-10-06T16:42:36.415Z,94.60
2017-10-06T16:43:36.381Z,95.65
2017-10-06T16:45:29.763Z,94.98
2017-10-06T16:46:29.785Z,94.13
2017-10-06T16:48:23.242Z,94.89
2017-10-06T16:49:23.184Z,95.46
2017-10-06T16:51:16.642Z,95.17
2017-10-06T16:53:38.692Z,92.99
2017-10-06T16:54:39.156Z,94.51
2017-10-06T16:56:41.742Z,94.79
2017-10-06T16:57:33.061Z,94.60
2017-10-06T16:59:29.415Z,93.94
2017-10-06T17:00:39.055Z,94.08
2017-10-06T17:02:23.966Z,95.65
2017-10-06T17:03:32.642Z,95.65
2017-10-06T17:05:24.869Z,95.84
2017-10-06T17:06:17.298Z,95.08
2017-10-06T17:08:19.175Z,96.36
2017-10-06T17:09:10.747Z,95.94
2017-10-06T17:11:12.625Z,94.60
2017-10-06T17:12:04.172Z,94.42
2017-10-06T17:14:04.604Z,95.17
2017-10-06T17:14:57.043Z,94.79
2017-10-06T17:16:50.463Z,93.18
2017-10-06T17:17:50.394Z,92.03
2017-10-06T17:19:45.938Z,92.99
2017-10-06T17:20:44.906Z,92.22
2017-10-06T17:22:47.123Z,91.84
2017-10-06T17:23:48.107Z,92.99
2017-10-06T17:25:32.965Z,92.60
2017-10-06T17:26:42.731Z,92.70
2017-10-06T17:28:25.986Z,91.75
2017-10-06T17:29:25.953Z,91.94
2017-10-06T17:31:19.527Z,91.65
2017-10-06T17:32:19.485Z,92.22
2017-10-06T17:34:12.861Z,91.84
2017-10-06T17:35:12.868Z,91.75
2017-10-06T17:37:06.277Z,91.46
2017-10-06T17:38:06.218Z,92.03
2017-10-06T17:39:59.710Z,92.22
2017-10-06T17:40:59.733Z,92.79
2017-10-06T17:42:53.123Z,92.60
2017-10-06T17:43:53.100Z,92.22
2017-10-06T17:45:46.512Z,90.70
2017-10-06T17:46:46.475Z,91.17
2017-10-06T17:48:39.999Z,91.17
2017-10-06T17:49:40.019Z,91.75
2017-10-06T17:51:33.724Z,91.27
2017-10-06T17:52:33.455Z,91.27
2017-10-06T17:54:27.939Z,91.37
2017-10-06T17:55:27.894Z,91.94
2017-10-06T17:57:21.539Z,91.75
2017-10-06T17:58:22.368Z,91.65
2017-10-06T18:00:15.723Z,92.22
2017-10-06T18:01:15.756Z,91.27
2017-10-06T18:03:09.380Z,90.66
2017-10-06T18:04:09.253Z,91.27
2017-10-06T18:06:03.709Z,91.65
2017-10-06T18:07:03.747Z,91.27
2017-10-06T18:08:59.364Z,91.32
2017-10-06T18:09:58.981Z,91.56
2017-10-06T18:11:53.602Z,91.65
2017-10-06T18:12:53.328Z,92.41
2017-10-06T18:14:47.892Z,92.41
2017-10-06T18:15:47.852Z,92.32
2017-10-06T18:17:41.353Z,92.13
2017-10-06T18:18:41.195Z,92.41
2017-10-06T18:20:35.588Z,91.94
2017-10-06T18:21:35.647Z,92.13
2017-10-06T18:23:29.100Z,91.89
2017-10-06T18:24:28.974Z,92.22
2017-10-06T18:26:22.417Z,91.75
2017-10-06T18:27:22.539Z,91.75
2017-10-06T18:29:15.984Z,92.75
2017-10-06T18:30:15.895Z,92.89
2017-10-06T18:32:10.255Z,91.99
2017-10-06T18:33:10.320Z,92.22
2017-10-06T18:35:03.654Z,91.61
2017-10-06T18:36:03.652Z,92.13
2017-10-06T18:37:57.174Z,91.94
2017-10-06T18:38:57.201Z,92.41
2017-10-06T18:40:52.710Z,92.84
2017-10-06T18:41:52.621Z,91.99
2017-10-06T18:43:46.017Z,92.46